createdAt,value
2022-11-23T00:01:37.778Z,99196.88
2022-11-23T00:04:12.414Z,99200.41
2022-11-23T00:06:40.119Z,99214.56
2022-11-23T00:09:11.233Z,99204.41
2022-11-23T00:11:41.217Z,99209.66
2022-11-23T00:14:10.970Z,99212.81
2022-11-23T00:16:37.754Z,99213.53
2022-11-23T00:19:04.543Z,99210.84
2022-11-23T00:21:33.179Z,99213.53
2022-11-23T00:24:00.159Z,99211.56
2022-11-23T00:26:27.503Z,99209.59
2022-11-23T00:28:54.692Z,99207.63
2022-11-23T00:31:25.660Z,99211.31
2022-11-23T00:33:55.319Z,99224.63
2022-11-23T00:36:25.581Z,99224.50
2022-11-23T00:38:55.797Z,99223.25
2022-11-23T00:41:26.485Z,99224.94
2022-11-23T00:43:53.619Z,99229.81
2022-11-23T00:46:24.408Z,99234.19
2022-11-23T00:48:54.019Z,99229.53
2022-11-23T00:51:29.275Z,99231.13
2022-11-23T00:53:57.151Z,99233.22
2022-11-23T00:56:26.686Z,99239.31
2022-11-23T00:58:56.229Z,99236.63
2022-11-23T01:01:27.201Z,99236.63
2022-11-23T01:03:58.356Z,99240.06
2022-11-23T01:06:37.097Z,99238.06
2022-11-23T01:09:07.997Z,99234.66
2022-11-23T01:11:35.365Z,99243.47
2022-11-23T01:14:02.276Z,99238.06
2022-11-23T01:16:36.714Z,99245.19
2022-11-23T01:19:08.194Z,99251.41
2022-11-23T01:21:36.287Z,99246.16
2022-11-23T01:24:09.523Z,99254.22
2022-11-23T01:26:38.850Z,99244.47
2022-11-23T01:29:05.651Z,99247.88
2022-11-23T01:31:32.796Z,99249.84
2022-11-23T01:34:04.948Z,99261.56
2022-11-23T01:36:35.072Z,99256.19
2022-11-23T01:39:03.858Z,99259.59
2022-11-23T01:41:37.532Z,99259.34
2022-11-23T01:44:31.956Z,99261.03
2022-11-23T01:47:05.738Z,99253.97
2022-11-23T01:49:45.552Z,99257.63
2022-11-23T01:52:20.084Z,99259.34
2022-11-23T01:54:51.591Z,99265.69
2022-11-23T01:57:28.107Z,99267.41
2022-11-23T01:59:58.514Z,99264.72
2022-11-23T02:02:30.088Z,99282.53
2022-11-23T02:05:00.687Z,99279.84
2022-11-23T02:07:29.384Z,99277.91
2022-11-23T02:09:56.170Z,99278.75
2022-11-23T02:12:22.933Z,99276.19
2022-11-23T02:14:50.212Z,99282.53
2022-11-23T02:17:19.454Z,99279.84
2022-11-23T02:20:03.446Z,99288.81
2022-11-23T02:23:04.212Z,99284.28
2022-11-23T02:25:45.243Z,99280.44
2022-11-23T02:28:24.967Z,99280.59
2022-11-23T02:30:55.112Z,99278.88
2022-11-23T02:33:25.344Z,99287.94
2022-11-23T02:35:59.649Z,99281.44
2022-11-23T02:38:33.441Z,99282.28
2022-11-23T02:41:01.173Z,99278.34
2022-11-23T02:43:28.056Z,99283.72
2022-11-23T02:46:04.019Z,99283.47
2022-11-23T02:48:30.736Z,99284.19
2022-11-23T02:50:57.604Z,99290.44
2022-11-23T02:53:24.450Z,99297.66
2022-11-23T02:55:53.013Z,99289.47
2022-11-23T02:58:19.794Z,99296.69
2022-11-23T03:00:47.087Z,99297.66
2022-11-23T03:03:17.153Z,99293.75
2022-11-23T03:05:43.948Z,99295.47
2022-11-23T03:08:10.760Z,99289.47
2022-11-23T03:10:39.533Z,99285.94
2022-11-23T03:13:06.307Z,99292.03
2022-11-23T03:15:35.531Z,99292.03
2022-11-23T03:18:04.569Z,99306.44
2022-11-23T03:20:32.245Z,99291.31
2022-11-23T03:22:59.085Z,99291.19
2022-11-23T03:25:26.413Z,99295.97
2022-11-23T03:27:55.781Z,99288.16
2022-11-23T03:30:22.619Z,99308.94
2022-11-23T03:32:50.140Z,99300.16
2022-11-23T03:35:18.760Z,99300.41
2022-11-23T03:38:03.849Z,99298.69
2022-11-23T03:40:31.695Z,99295.28
2022-11-23T03:43:19.682Z,99301.66
2022-11-23T03:45:47.041Z,99307.75
2022-11-23T03:48:14.624Z,99313.13
2022-11-23T03:50:41.418Z,99304.06
2022-11-23T03:53:08.634Z,99313.13
2022-11-23T03:55:35.707Z,99316.78
2022-11-23T03:58:06.019Z,99313.38
2022-11-23T04:00:35.882Z,99319.47
2022-11-23T04:03:03.891Z,99309.72
2022-11-23T04:05:49.316Z,99317.78
2022-11-23T04:08:36.009Z,99320.47
2022-11-23T04:11:11.001Z,99315.09
2022-11-23T04:13:40.987Z,99310.56
2022-11-23T04:16:09.139Z,99306.31
2022-11-23T04:18:37.604Z,99312.53
2022-11-23T04:21:05.224Z,99309.97
2022-11-23T04:23:31.955Z,99314.50
2022-11-23T04:25:58.716Z,99313.38
2022-11-23T04:28:25.523Z,99314.09
2022-11-23T04:30:53.235Z,99311.41
2022-11-23T04:33:20.052Z,99321.22
2022-11-23T04:35:46.987Z,99321.22
2022-11-23T04:38:14.394Z,99311.41
2022-11-23T04:40:41.964Z,99313.13
2022-11-23T04:43:12.070Z,99314.81
2022-11-23T04:45:40.584Z,99308.47
2022-11-23T04:48:13.420Z,99314.81
2022-11-23T04:50:44.641Z,99314.81
2022-11-23T04:53:16.743Z,99321.69
2022-11-23T04:55:47.591Z,99306.63
2022-11-23T04:58:15.638Z,99310.19
2022-11-23T05:00:42.756Z,99312.72
2022-11-23T05:03:11.479Z,99307.50
2022-11-23T05:05:41.874Z,99304.81
2022-11-23T05:08:09.765Z,99297.00
2022-11-23T05:10:51.338Z,99289.91
2022-11-23T05:13:19.093Z,99302.63
2022-11-23T05:15:48.084Z,99303.47
2022-11-23T05:18:20.371Z,99306.03
2022-11-23T05:20:49.193Z,99314.81
2022-11-23T05:23:17.011Z,99303.34
2022-11-23T05:25:45.590Z,99307.75
2022-11-23T05:28:39.197Z,99311.41
2022-11-23T05:31:07.563Z,99312.28
2022-11-23T05:33:34.363Z,99312.00
2022-11-23T05:36:04.037Z,99311.16
2022-11-23T05:38:36.632Z,99313.13
2022-11-23T05:41:08.906Z,99320.47
2022-11-23T05:43:38.473Z,99312.91
2022-11-23T05:46:07.906Z,99320.25
2022-11-23T05:48:36.404Z,99318.81
2022-11-23T05:51:08.566Z,99317.38
2022-11-23T05:53:42.122Z,99328.13
2022-11-23T05:56:20.190Z,99317.38
2022-11-23T05:59:08.005Z,99317.50
2022-11-23T06:01:36.993Z,99319.38
2022-11-23T06:04:06.851Z,99310.91
2022-11-23T06:06:39.234Z,99323.63
2022-11-23T06:09:06.013Z,99315.69
2022-11-23T06:11:35.424Z,99315.22
2022-11-23T06:14:13.980Z,99315.84
2022-11-23T06:16:41.550Z,99319.16
2022-11-23T06:19:21.245Z,99317.94
2022-11-23T06:21:51.204Z,99315.97
2022-11-23T06:24:25.000Z,99324.53
2022-11-23T06:27:16.683Z,99323.56
2022-11-23T06:29:47.838Z,99329.41
2022-11-23T06:32:15.538Z,99325.75
2022-11-23T06:34:43.074Z,99334.53
2022-11-23T06:37:10.447Z,99328.06
2022-11-23T06:39:37.332Z,99329.41
2022-11-23T06:42:36.664Z,99330.41
2022-11-23T06:44:53.114Z,99328.19
2022-11-23T06:47:25.971Z,99333.59
2022-11-23T06:49:53.626Z,99331.88
2022-11-23T06:52:26.508Z,99332.38
2022-11-23T06:54:53.981Z,99340.44
2022-11-23T06:57:22.557Z,99333.88
2022-11-23T06:59:49.719Z,99342.31
2022-11-23T07:02:21.379Z,99348.66
2022-11-23T07:04:48.591Z,99345.97
2022-11-23T07:07:17.471Z,99351.34
2022-11-23T07:09:50.959Z,99356.81
2022-11-23T07:12:22.732Z,99355.00
2022-11-23T07:14:49.509Z,99364.75
2022-11-23T07:17:17.535Z,99365.50
2022-11-23T07:19:45.043Z,99368.66
2022-11-23T07:22:12.044Z,99370.13
2022-11-23T07:24:45.286Z,99372.47
2022-11-23T07:27:13.736Z,99378.31
2022-11-23T07:29:40.522Z,99377.31
2022-11-23T07:32:08.516Z,99379.91
2022-11-23T07:34:35.649Z,99377.31
2022-11-23T07:37:04.171Z,99382.97
2022-11-23T07:39:55.574Z,99392.00
2022-11-23T07:42:41.463Z,99390.28
2022-11-23T07:45:09.293Z,99388.81
2022-11-23T07:47:38.355Z,99393.72
2022-11-23T07:50:11.233Z,99395.16
2022-11-23T07:52:39.133Z,99400.31
2022-11-23T07:55:06.711Z,99404.19
2022-11-23T07:57:33.455Z,99410.91
2022-11-23T08:00:00.176Z,99401.16
2022-11-23T08:02:27.067Z,99409.69
2022-11-23T08:04:53.866Z,99404.94
2022-11-23T08:07:20.656Z,99414.00
2022-11-23T08:09:47.378Z,99410.56
2022-11-23T08:12:14.186Z,99414.94
2022-11-23T08:14:40.986Z,99423.00
2022-11-23T08:17:07.792Z,99408.63
2022-11-23T08:19:34.680Z,99420.44
2022-11-23T08:22:01.658Z,99425.94
2022-11-23T08:24:28.408Z,99419.81
2022-11-23T08:26:56.102Z,99419.59
2022-11-23T08:29:22.918Z,99421.66
2022-11-23T08:31:49.655Z,99422.41
2022-11-23T08:34:18.016Z,99426.94
2022-11-23T08:36:45.479Z,99428.63
2022-11-23T08:39:14.228Z,99422.28
2022-11-23T08:41:42.255Z,99413.50
2022-11-23T08:44:11.256Z,99426.69
2022-11-23T08:46:39.071Z,99424.72
2022-11-23T08:49:07.372Z,99431.91
2022-11-23T08:51:36.072Z,99438.06
2022-11-23T08:54:02.878Z,99430.56
2022-11-23T08:56:29.610Z,99433.25
2022-11-23T08:58:56.314Z,99433.25
2022-11-23T09:01:23.755Z,99431.34
2022-11-23T09:03:50.634Z,99423.28
2022-11-23T09:06:17.520Z,99425.97
2022-11-23T09:08:44.298Z,99407.59
2022-11-23T09:11:14.175Z,99407.38
2022-11-23T09:13:41.157Z,99423.25
2022-11-23T09:16:08.865Z,99429.38
2022-11-23T09:18:36.649Z,99419.34
2022-11-23T09:21:05.709Z,99421.06
2022-11-23T09:23:32.690Z,99415.69
2022-11-23T09:26:04.610Z,99414.34
2022-11-23T09:28:33.121Z,99412.97
2022-11-23T09:31:04.696Z,99409.06
2022-11-23T09:33:31.621Z,99400.59
2022-11-23T09:36:01.495Z,99412.13
2022-11-23T09:38:54.698Z,99410.88
2022-11-23T09:42:17.799Z,99408.72
2022-11-23T09:45:11.655Z,99400.47
2022-11-23T09:47:53.456Z,99398.28
2022-11-23T09:50:27.027Z,99414.88
2022-11-23T09:52:54.307Z,99404.38
2022-11-23T09:55:45.511Z,99388.03
2022-11-23T09:58:18.734Z,99387.38
2022-11-23T10:01:02.021Z,99385.59
2022-11-23T10:03:37.076Z,99385.78
2022-11-23T10:06:19.596Z,99383.00
2022-11-23T10:09:15.982Z,99372.53
2022-11-23T10:12:19.747Z,99355.00
2022-11-23T10:15:01.423Z,99360.72
2022-11-23T10:17:45.264Z,99367.19
2022-11-23T10:20:58.425Z,99356.38
2022-11-23T10:23:44.189Z,99340.44
2022-11-23T10:26:18.367Z,99342.69
2022-11-23T10:28:47.994Z,99337.91
2022-11-23T10:31:26.055Z,99337.88
2022-11-23T10:34:08.365Z,99342.63
2022-11-23T10:36:37.328Z,99341.09
2022-11-23T10:39:23.528Z,99352.31
2022-11-23T10:41:52.953Z,99345.50
2022-11-23T10:44:36.975Z,99345.50
2022-11-23T10:47:05.232Z,99337.59
2022-11-23T10:49:35.416Z,99345.25
2022-11-23T10:52:33.399Z,99339.81
2022-11-23T10:55:06.405Z,99340.09
2022-11-23T10:57:51.295Z,99327.38
2022-11-23T11:00:30.079Z,99331.75
2022-11-23T11:02:59.519Z,99321.78
2022-11-23T11:06:09.590Z,99321.97
2022-11-23T11:08:34.426Z,99318.06
2022-11-23T11:11:21.181Z,99308.13
2022-11-23T11:13:49.459Z,99313.47
2022-11-23T11:16:26.981Z,99314.44
2022-11-23T11:18:53.970Z,99312.59
2022-11-23T11:21:27.305Z,99303.63
2022-11-23T11:24:03.505Z,99319.88
2022-11-23T11:26:35.882Z,99309.28
2022-11-23T11:29:10.000Z,99301.00
2022-11-23T11:31:48.396Z,99296.75
2022-11-23T11:34:31.741Z,99298.44
2022-11-23T11:37:19.343Z,99298.16
2022-11-23T11:40:24.155Z,99299.09
2022-11-23T11:42:59.966Z,99302.03
2022-11-23T11:46:27.956Z,99285.69
2022-11-23T11:49:05.827Z,99278.38
2022-11-23T11:51:42.934Z,99274.03
2022-11-23T11:54:31.926Z,99266.81
2022-11-23T11:57:28.031Z,99273.69
2022-11-23T11:59:58.253Z,99265.91
2022-11-23T12:02:32.159Z,99260.81
2022-11-23T12:05:56.213Z,99242.59
2022-11-23T12:08:53.596Z,99252.63
2022-11-23T12:11:20.267Z,99252.09
2022-11-23T12:13:47.248Z,99247.56
2022-11-23T12:16:29.849Z,99239.94
2022-11-23T12:19:20.946Z,99235.28
2022-11-23T12:22:15.218Z,99243.06
2022-11-23T12:25:05.100Z,99237.69
2022-11-23T12:27:48.643Z,99239.97
2022-11-23T12:30:31.177Z,99235.59
2022-11-23T12:33:11.347Z,99240.91
2022-11-23T12:36:26.596Z,99231.81
2022-11-23T12:39:33.276Z,99224.66
2022-11-23T12:42:28.302Z,99224.88
2022-11-23T12:45:19.333Z,99220.53
2022-11-23T12:48:07.297Z,99221.72
2022-11-23T12:50:55.249Z,99221.81
2022-11-23T12:53:47.456Z,99226.53
2022-11-23T12:56:54.842Z,99228.78
2022-11-23T12:59:26.591Z,99214.94
2022-11-23T13:02:04.758Z,99213.75
2022-11-23T13:04:55.753Z,99218.47
2022-11-23T13:07:58.947Z,99210.75
2022-11-23T13:10:45.574Z,99210.75
2022-11-23T13:13:20.918Z,99206.50
2022-11-23T13:16:05.988Z,99204.53
2022-11-23T13:18:53.829Z,99199.91
2022-11-23T13:21:39.658Z,99194.69
2022-11-23T13:24:33.897Z,99189.03
2022-11-23T13:27:13.007Z,99180.25
2022-11-23T13:30:01.303Z,99197.06
2022-11-23T13:32:39.984Z,99201.06
2022-11-23T13:35:18.894Z,99209.44
2022-11-23T13:37:57.951Z,99213.75
2022-11-23T13:40:36.717Z,99215.03
2022-11-23T13:43:21.634Z,99231.53
2022-11-23T13:46:37.359Z,99226.72
2022-11-23T13:49:24.268Z,99240.50
2022-11-23T13:52:24.292Z,99249.50
2022-11-23T13:55:25.980Z,99245.53
2022-11-23T13:58:23.721Z,99252.31
2022-11-23T14:00:51.704Z,99248.97
2022-11-23T14:03:49.638Z,99270.25
2022-11-23T14:06:56.791Z,99273.19
2022-11-23T14:09:39.029Z,99271.16
2022-11-23T14:12:18.843Z,99262.75
2022-11-23T14:15:26.345Z,99265.88
2022-11-23T14:18:39.578Z,99257.03
2022-11-23T14:21:19.224Z,99250.66
2022-11-23T14:24:11.194Z,99258.28
2022-11-23T14:27:48.640Z,99267.81
2022-11-23T14:31:09.600Z,99271.72
2022-11-23T14:34:18.472Z,99281.31
2022-11-23T14:37:45.789Z,99286.94
2022-11-23T14:40:53.183Z,99295.13
2022-11-23T14:43:21.516Z,99306.47
2022-11-23T14:45:48.752Z,99314.03
2022-11-23T14:48:32.988Z,99320.25
2022-11-23T14:51:04.304Z,99326.75
2022-11-23T14:53:46.734Z,99334.44
2022-11-23T14:56:35.619Z,99327.50
2022-11-23T14:59:09.422Z,99329.97
2022-11-23T15:01:38.132Z,99331.66
2022-11-23T15:04:21.207Z,99346.69
2022-11-23T15:06:54.483Z,99361.72
2022-11-23T15:10:16.977Z,99361.47
2022-11-23T15:12:46.905Z,99359.03
2022-11-23T15:15:37.933Z,99349.50
2022-11-23T15:18:04.862Z,99346.81
2022-11-23T15:20:43.779Z,99348.03
2022-11-23T15:23:31.930Z,99352.56
2022-11-23T15:26:02.555Z,99349.25
2022-11-23T15:28:34.842Z,99359.28
2022-11-23T15:31:01.837Z,99345.00
2022-11-23T15:33:32.751Z,99338.03
2022-11-23T15:35:59.778Z,99343.16
2022-11-23T15:38:27.855Z,99335.72
2022-11-23T15:41:05.331Z,99341.19
2022-11-23T15:43:32.144Z,99335.59
2022-11-23T15:46:05.861Z,99335.34
2022-11-23T15:48:36.605Z,99333.38
2022-11-23T15:51:08.674Z,99355.13
2022-11-23T15:53:54.706Z,99347.41
2022-11-23T15:56:36.010Z,99350.09
2022-11-23T15:59:16.132Z,99340.47
2022-11-23T16:01:44.245Z,99315.34
2022-11-23T16:04:43.692Z,99319.72
2022-11-23T16:07:22.842Z,99328.50
2022-11-23T16:10:24.240Z,99370.28
2022-11-23T16:12:59.240Z,99380.16
2022-11-23T16:15:32.582Z,99390.03
2022-11-23T16:18:06.084Z,99394.69
2022-11-23T16:20:33.312Z,99381.59
2022-11-23T16:23:01.393Z,99389.78
2022-11-23T16:25:35.774Z,99384.69
2022-11-23T16:28:14.202Z,99399.56
2022-11-23T16:30:44.293Z,99416.66
2022-11-23T16:33:18.298Z,99421.78
2022-11-23T16:35:48.174Z,99421.78
2022-11-23T16:38:15.191Z,99425.19
2022-11-23T16:40:43.607Z,99429.50
2022-11-23T16:43:12.044Z,99434.00
2022-11-23T16:45:41.859Z,99430.34
2022-11-23T16:48:26.804Z,99430.09
2022-11-23T16:50:56.105Z,99436.22
2022-11-23T16:53:26.833Z,99435.94
2022-11-23T16:55:56.560Z,99442.94
2022-11-23T16:58:25.784Z,99451.59
2022-11-23T17:00:52.564Z,99448.91
2022-11-23T17:03:21.249Z,99451.22
2022-11-23T17:05:48.538Z,99457.47
2022-11-23T17:08:21.588Z,99457.22
2022-11-23T17:10:51.445Z,99463.47
2022-11-23T17:13:26.713Z,99458.94
2022-11-23T17:15:54.580Z,99467.94
2022-11-23T17:18:22.292Z,99470.19
2022-11-23T17:20:49.353Z,99481.16
2022-11-23T17:23:16.197Z,99481.16
2022-11-23T17:25:43.091Z,99476.75
2022-11-23T17:28:22.286Z,99491.41
2022-11-23T17:30:49.909Z,99494.72
2022-11-23T17:33:17.251Z,99490.19
2022-11-23T17:35:44.139Z,99508.50
2022-11-23T17:38:19.934Z,99503.13
2022-11-23T17:40:46.897Z,99513.03
2022-11-23T17:43:14.771Z,99522.91
2022-11-23T17:45:42.811Z,99527.31
2022-11-23T17:48:15.833Z,99522.69
2022-11-23T17:50:42.652Z,99522.69
2022-11-23T17:53:10.592Z,99526.47
2022-11-23T17:55:38.227Z,99526.56
2022-11-23T17:58:05.921Z,99530.75
2022-11-23T18:00:33.609Z,99543.09
2022-11-23T18:03:00.398Z,99545.66
2022-11-23T18:05:27.428Z,99545.53
2022-11-23T18:07:54.211Z,99557.25
2022-11-23T18:10:21.539Z,99558.09
2022-11-23T18:12:48.467Z,99554.69
2022-11-23T18:15:15.387Z,99565.44
2022-11-23T18:17:42.499Z,99570.81
2022-11-23T18:20:10.378Z,99573.59
2022-11-23T18:22:37.694Z,99580.94
2022-11-23T18:25:04.999Z,99576.66
2022-11-23T18:27:31.868Z,99575.81
2022-11-23T18:29:58.641Z,99583.00
2022-11-23T18:32:25.447Z,99586.91
2022-11-23T18:34:52.145Z,99598.63
2022-11-23T18:37:19.099Z,99596.91
2022-11-23T18:39:46.036Z,99592.75
2022-11-23T18:42:12.846Z,99593.72
2022-11-23T18:44:39.619Z,99588.81
2022-11-23T18:47:06.426Z,99592.47
2022-11-23T18:49:33.493Z,99581.09
2022-11-23T18:52:00.420Z,99599.16
2022-11-23T18:54:27.224Z,99611.00
2022-11-23T18:56:54.148Z,99608.31
2022-11-23T18:59:57.294Z,99607.59
2022-11-23T19:02:12.592Z,99618.56
2022-11-23T19:04:39.821Z,99620.50
2022-11-23T19:07:06.857Z,99620.28
2022-11-23T19:09:34.599Z,99615.13
2022-11-23T19:12:01.777Z,99631.47
2022-11-23T19:14:28.542Z,99640.50
2022-11-23T19:16:55.511Z,99635.13
2022-11-23T19:19:22.442Z,99645.09
2022-11-23T19:21:49.386Z,99640.94
2022-11-23T19:24:16.167Z,99652.66
2022-11-23T19:26:42.956Z,99649.88
2022-11-23T19:29:09.839Z,99652.31
2022-11-23T19:31:36.671Z,99650.47
2022-11-23T19:34:06.183Z,99657.78
2022-11-23T19:36:36.496Z,99665.63
2022-11-23T19:39:08.333Z,99662.00
2022-11-23T19:41:35.222Z,99660.47
2022-11-23T19:44:02.343Z,99655.34
2022-11-23T19:46:31.384Z,99666.09
2022-11-23T19:48:59.104Z,99669.28
2022-11-23T19:51:27.513Z,99667.47
2022-11-23T19:53:57.518Z,99665.41
2022-11-23T19:56:27.567Z,99671.53
2022-11-23T19:58:57.799Z,99671.78
2022-11-23T20:01:28.607Z,99676.84
2022-11-23T20:03:57.861Z,99685.53
2022-11-23T20:06:28.305Z,99680.16
2022-11-23T20:08:56.731Z,99686.38
2022-11-23T20:11:24.751Z,99685.97
2022-11-23T20:13:51.533Z,99689.75
2022-11-23T20:16:20.876Z,99696.97
2022-11-23T20:18:54.626Z,99704.28
2022-11-23T20:21:21.389Z,99711.97
2022-11-23T20:23:50.277Z,99716.03
2022-11-23T20:26:20.680Z,99705.53
2022-11-23T20:28:52.732Z,99702.06
2022-11-23T20:31:26.269Z,99699.28
2022-11-23T20:33:54.041Z,99726.78
2022-11-23T20:36:24.713Z,99737.09
2022-11-23T20:38:53.720Z,99738.34
2022-11-23T20:41:32.215Z,99738.09
2022-11-23T20:44:20.920Z,99745.84
2022-11-23T20:47:03.857Z,99742.16
2022-11-23T20:49:32.012Z,99743.03
2022-11-23T20:52:00.005Z,99741.53
2022-11-23T20:54:27.075Z,99750.78
2022-11-23T20:56:53.967Z,99761.31
2022-11-23T20:59:20.826Z,99752.78
2022-11-23T21:01:47.634Z,99753.44
2022-11-23T21:04:14.471Z,99756.00
2022-11-23T21:06:41.393Z,99753.72
2022-11-23T21:09:10.277Z,99758.22
2022-11-23T21:11:55.913Z,99758.00
2022-11-23T21:14:27.606Z,99756.91
2022-11-23T21:17:00.281Z,99764.16
2022-11-23T21:19:37.477Z,99762.00
2022-11-23T21:22:14.840Z,99766.63
2022-11-23T21:24:42.223Z,99769.78
2022-11-23T21:27:13.242Z,99770.47
2022-11-23T21:29:40.143Z,99772.88
2022-11-23T21:32:06.942Z,99778.72
2022-11-23T21:34:34.285Z,99780.88
2022-11-23T21:37:01.725Z,99788.41
2022-11-23T21:39:31.266Z,99783.03
2022-11-23T21:41:58.220Z,99793.03
2022-11-23T21:44:25.000Z,99792.31
2022-11-23T21:46:52.098Z,99789.94
2022-11-23T21:49:19.052Z,99794.47
2022-11-23T21:51:46.570Z,99803.16
2022-11-23T21:54:15.679Z,99802.31
2022-11-23T21:56:44.858Z,99813.78
2022-11-23T21:59:12.722Z,99808.63
2022-11-23T22:01:40.737Z,99817.53
2022-11-23T22:04:13.581Z,99821.13
2022-11-23T22:06:42.159Z,99823.06
2022-11-23T22:09:11.195Z,99836.78
2022-11-23T22:11:41.129Z,99838.25
2022-11-23T22:14:12.692Z,99830.94
2022-11-23T22:16:44.350Z,99835.34
2022-11-23T22:19:13.661Z,99840.00
2022-11-23T22:21:42.603Z,99840.09
2022-11-23T22:24:18.359Z,99843.63
2022-11-23T22:26:47.540Z,99841.94
2022-11-23T22:29:15.025Z,99838.50
2022-11-23T22:31:41.937Z,99844.94
2022-11-23T22:34:12.542Z,99854.63
2022-11-23T22:36:39.521Z,99858.81
2022-11-23T22:39:06.950Z,99861.50
2022-11-23T22:41:37.010Z,99850.75
2022-11-23T22:44:07.727Z,99855.91
2022-11-23T22:46:35.028Z,99858.59
2022-11-23T22:49:02.006Z,99862.53
2022-11-23T22:51:29.807Z,99864.03
2022-11-23T22:53:59.099Z,99872.84
2022-11-23T22:56:27.642Z,99885.53
2022-11-23T22:58:54.819Z,99875.63
2022-11-23T23:01:29.003Z,99888.84
2022-11-23T23:03:58.873Z,99900.25
2022-11-23T23:06:29.245Z,99895.81
2022-11-23T23:09:01.257Z,99894.13
2022-11-23T23:11:31.912Z,99890.25
2022-11-23T23:14:00.647Z,99909.59
2022-11-23T23:16:28.704Z,99904.72
2022-11-23T23:18:57.070Z,99903.75
2022-11-23T23:21:25.604Z,99910.59
2022-11-23T23:23:55.752Z,99906.97
2022-11-23T23:26:25.207Z,99912.09
2022-11-23T23:28:57.380Z,99914.78
2022-11-23T23:31:25.366Z,99915.97
2022-11-23T23:33:53.752Z,99923.19
2022-11-23T23:36:23.512Z,99930.41
2022-11-23T23:38:51.198Z,99931.38
2022-11-23T23:41:18.922Z,99928.69
2022-11-23T23:43:47.922Z,99928.59
2022-11-23T23:46:14.837Z,99930.41
2022-11-23T23:48:41.967Z,99932.38
2022-11-23T23:51:18.304Z,99929.69
2022-11-23T23:53:46.397Z,99928.91
2022-11-23T23:56:27.917Z,99928.16
2022-11-23T23:58:56.885Z,99930.94
